sensor_id;sensor_type;location;lat;lon;timestamp;P1;durP1;ratioP1;P2;durP2;ratioP2
49578;SDS011;35483;50.828;3.228;2023-10-19T00:00:19;1.40;;;0.75;;
49578;SDS011;35483;50.828;3.228;2023-10-19T00:02:48;1.52;;;0.80;;
49578;SDS011;35483;50.828;3.228;2023-10-19T00:05:17;0.80;;;0.68;;
49578;SDS011;35483;50.828;3.228;2023-10-19T00:07:45;2.25;;;0.88;;
49578;SDS011;35483;50.828;3.228;2023-10-19T00:10:11;1.77;;;0.88;;
49578;SDS011;35483;50.828;3.228;2023-10-19T00:12:40;2.05;;;1.35;;
49578;SDS011;35483;50.828;3.228;2023-10-19T00:15:07;2.75;;;0.82;;
49578;SDS011;35483;50.828;3.228;2023-10-19T00:17:35;1.80;;;0.60;;
49578;SDS011;35483;50.828;3.228;2023-10-19T00:20:03;2.40;;;1.17;;
49578;SDS011;35483;50.828;3.228;2023-10-19T00:22:48;5.35;;;1.05;;
49578;SDS011;35483;50.828;3.228;2023-10-19T00:25:13;1.75;;;0.80;;
49578;SDS011;35483;50.828;3.228;2023-10-19T00:27:39;1.85;;;0.80;;
49578;SDS011;35483;50.828;3.228;2023-10-19T00:30:07;3.28;;;1.13;;
49578;SDS011;35483;50.828;3.228;2023-10-19T00:32:35;1.30;;;0.95;;
49578;SDS011;35483;50.828;3.228;2023-10-19T00:35:04;2.83;;;0.90;;
49578;SDS011;35483;50.828;3.228;2023-10-19T00:37:46;2.30;;;1.15;;
49578;SDS011;35483;50.828;3.228;2023-10-19T00:40:12;2.45;;;0.85;;
49578;SDS011;35483;50.828;3.228;2023-10-19T00:42:44;2.10;;;0.88;;
49578;SDS011;35483;50.828;3.228;2023-10-19T00:45:12;1.33;;;1.00;;
49578;SDS011;35483;50.828;3.228;2023-10-19T00:47:38;1.98;;;0.75;;
49578;SDS011;35483;50.828;3.228;2023-10-19T00:50:08;2.10;;;1.08;;
49578;SDS011;35483;50.828;3.228;2023-10-19T00:52:40;3.85;;;0.95;;
49578;SDS011;35483;50.828;3.228;2023-10-19T00:55:11;3.40;;;0.95;;
49578;SDS011;35483;50.828;3.228;2023-10-19T00:57:39;1.45;;;0.77;;
49578;SDS011;35483;50.828;3.228;2023-10-19T01:00:07;3.85;;;1.08;;
49578;SDS011;35483;50.828;3.228;2023-10-19T01:02:37;5.93;;;1.17;;
49578;SDS011;35483;50.828;3.228;2023-10-19T01:05:08;1.20;;;0.80;;
49578;SDS011;35483;50.828;3.228;2023-10-19T01:07:38;1.48;;;0.75;;
49578;SDS011;35483;50.828;3.228;2023-10-19T01:10:06;1.20;;;0.85;;
49578;SDS011;35483;50.828;3.228;2023-10-19T01:12:45;1.10;;;0.65;;
49578;SDS011;35483;50.828;3.228;2023-10-19T01:15:12;1.73;;;1.00;;
49578;SDS011;35483;50.828;3.228;2023-10-19T01:17:39;2.72;;;1.13;;
49578;SDS011;35483;50.828;3.228;2023-10-19T01:20:16;2.70;;;0.70;;
49578;SDS011;35483;50.828;3.228;2023-10-19T01:23:05;2.92;;;1.00;;
49578;SDS011;35483;50.828;3.228;2023-10-19T01:28:09;3.90;;;0.90;;
49578;SDS011;35483;50.828;3.228;2023-10-19T01:30:36;2.40;;;0.93;;
49578;SDS011;35483;50.828;3.228;2023-10-19T01:33:03;1.92;;;0.80;;
49578;SDS011;35483;50.828;3.228;2023-10-19T01:35:33;3.10;;;0.85;;
49578;SDS011;35483;50.828;3.228;2023-10-19T01:38:18;4.70;;;1.07;;
49578;SDS011;35483;50.828;3.228;2023-10-19T01:40:43;4.15;;;1.00;;
49578;SDS011;35483;50.828;3.228;2023-10-19T01:43:11;1.88;;;1.10;;
49578;SDS011;35483;50.828;3.228;2023-10-19T01:45:46;3.40;;;1.00;;
49578;SDS011;35483;50.828;3.228;2023-10-19T01:48:13;1.67;;;0.90;;
49578;SDS011;35483;50.828;3.228;2023-10-19T01:50:41;2.28;;;1.00;;
49578;SDS011;35483;50.828;3.228;2023-10-19T01:53:07;2.80;;;0.82;;
49578;SDS011;35483;50.828;3.228;2023-10-19T01:55:44;1.15;;;0.93;;
49578;SDS011;35483;50.828;3.228;2023-10-19T01:58:12;2.22;;;1.08;;
49578;SDS011;35483;50.828;3.228;2023-10-19T02:00:39;4.22;;;1.15;;
49578;SDS011;35483;50.828;3.228;2023-10-19T02:03:09;1.58;;;0.90;;
49578;SDS011;35483;50.828;3.228;2023-10-19T02:05:34;1.52;;;0.88;;
49578;SDS011;35483;50.828;3.228;2023-10-19T02:08:07;3.25;;;1.10;;
49578;SDS011;35483;50.828;3.228;2023-10-19T02:10:34;2.00;;;1.20;;
49578;SDS011;35483;50.828;3.228;2023-10-19T02:13:01;1.98;;;0.98;;
49578;SDS011;35483;50.828;3.228;2023-10-19T02:15:32;3.97;;;1.55;;
49578;SDS011;35483;50.828;3.228;2023-10-19T02:18:00;3.70;;;0.90;;
49578;SDS011;35483;50.828;3.228;2023-10-19T02:20:28;3.70;;;1.20;;
49578;SDS011;35483;50.828;3.228;2023-10-19T02:22:54;4.25;;;0.93;;
49578;SDS011;35483;50.828;3.228;2023-10-19T02:25:23;3.55;;;1.15;;
49578;SDS011;35483;50.828;3.228;2023-10-19T02:27:56;4.23;;;1.13;;
49578;SDS011;35483;50.828;3.228;2023-10-19T02:30:22;2.60;;;1.02;;
49578;SDS011;35483;50.828;3.228;2023-10-19T02:32:50;2.30;;;0.90;;
49578;SDS011;35483;50.828;3.228;2023-10-19T02:35:16;2.58;;;1.10;;
49578;SDS011;35483;50.828;3.228;2023-10-19T02:37:41;2.15;;;0.90;;
49578;SDS011;35483;50.828;3.228;2023-10-19T02:40:07;2.47;;;0.80;;
49578;SDS011;35483;50.828;3.228;2023-10-19T02:42:47;2.53;;;0.75;;
49578;SDS011;35483;50.828;3.228;2023-10-19T02:45:16;2.78;;;0.90;;
49578;SDS011;35483;50.828;3.228;2023-10-19T02:47:43;2.28;;;0.98;;
49578;SDS011;35483;50.828;3.228;2023-10-19T02:50:10;3.72;;;1.27;;
49578;SDS011;35483;50.828;3.228;2023-10-19T02:52:40;4.68;;;1.55;;
49578;SDS011;35483;50.828;3.228;2023-10-19T02:55:07;2.63;;;0.93;;
49578;SDS011;35483;50.828;3.228;2023-10-19T02:57:34;1.58;;;0.93;;
49578;SDS011;35483;50.828;3.228;2023-10-19T03:00:00;2.70;;;0.85;;
49578;SDS011;35483;50.828;3.228;2023-10-19T03:02:32;1.88;;;1.13;;
49578;SDS011;35483;50.828;3.228;2023-10-19T03:04:58;3.55;;;1.52;;
49578;SDS011;35483;50.828;3.228;2023-10-19T03:07:25;1.92;;;1.00;;
49578;SDS011;35483;50.828;3.228;2023-10-19T03:09:51;3.90;;;1.27;;
49578;SDS011;35483;50.828;3.228;2023-10-19T03:12:20;3.85;;;1.23;;
49578;SDS011;35483;50.828;3.228;2023-10-19T03:14:50;3.78;;;1.15;;
49578;SDS011;35483;50.828;3.228;2023-10-19T03:17:17;6.57;;;1.40;;
49578;SDS011;35483;50.828;3.228;2023-10-19T03:19:43;1.88;;;1.23;;
49578;SDS011;35483;50.828;3.228;2023-10-19T03:22:09;4.60;;;1.38;;
49578;SDS011;35483;50.828;3.228;2023-10-19T03:24:36;6.65;;;1.63;;
49578;SDS011;35483;50.828;3.228;2023-10-19T03:27:12;5.03;;;1.58;;
49578;SDS011;35483;50.828;3.228;2023-10-19T03:29:48;3.95;;;1.52;;
49578;SDS011;35483;50.828;3.228;2023-10-19T03:32:25;4.05;;;1.58;;
49578;SDS011;35483;50.828;3.228;2023-10-19T03:34:54;3.10;;;1.40;;
49578;SDS011;35483;50.828;3.228;2023-10-19T03:37:28;4.05;;;1.65;;
49578;SDS011;35483;50.828;3.228;2023-10-19T03:39:55;4.50;;;1.58;;
49578;SDS011;35483;50.828;3.228;2023-10-19T03:42:22;6.50;;;2.30;;
49578;SDS011;35483;50.828;3.228;2023-10-19T03:44:51;6.05;;;1.60;;
49578;SDS011;35483;50.828;3.228;2023-10-19T03:47:20;6.35;;;1.58;;
49578;SDS011;35483;50.828;3.228;2023-10-19T03:49:50;2.95;;;1.65;;
49578;SDS011;35483;50.828;3.228;2023-10-19T03:52:16;5.78;;;1.83;;
49578;SDS011;35483;50.828;3.228;2023-10-19T03:54:42;5.60;;;1.65;;
49578;SDS011;35483;50.828;3.228;2023-10-19T03:57:12;4.95;;;1.63;;
49578;SDS011;35483;50.828;3.228;2023-10-19T03:59:48;3.20;;;1.35;;
49578;SDS011;35483;50.828;3.228;2023-10-19T04:02:26;5.05;;;1.63;;
49578;SDS011;35483;50.828;3.228;2023-10-19T04:04:54;4.80;;;1.38;;
49578;SDS011;35483;50.828;3.228;2023-10-19T04:07:22;4.35;;;1.20;;
49578;SDS011;35483;50.828;3.228;2023-10-19T04:09:51;5.57;;;1.70;;
49578;SDS011;35483;50.828;3.228;2023-10-19T04:12:33;3.33;;;1.33;;
49578;SDS011;35483;50.828;3.228;2023-10-19T04:15:09;4.65;;;1.60;;
49578;SDS011;35483;50.828;3.228;2023-10-19T04:17:35;5.18;;;1.60;;
49578;SDS011;35483;50.828;3.228;2023-10-19T04:20:02;5.25;;;1.75;;
49578;SDS011;35483;50.828;3.228;2023-10-19T04:22:40;6.15;;;1.83;;
49578;SDS011;35483;50.828;3.228;2023-10-19T04:25:06;5.85;;;1.60;;
49578;SDS011;35483;50.828;3.228;2023-10-19T04:27:32;5.13;;;1.55;;
49578;SDS011;35483;50.828;3.228;2023-10-19T04:30:01;5.55;;;1.83;;
49578;SDS011;35483;50.828;3.228;2023-10-19T04:32:27;2.42;;;1.20;;
49578;SDS011;35483;50.828;3.228;2023-10-19T04:34:54;5.25;;;1.85;;
49578;SDS011;35483;50.828;3.228;2023-10-19T04:37:20;4.15;;;1.83;;
49578;SDS011;35483;50.828;3.228;2023-10-19T04:39:49;5.57;;;1.42;;
49578;SDS011;35483;50.828;3.228;2023-10-19T04:42:15;7.47;;;1.92;;
49578;SDS011;35483;50.828;3.228;2023-10-19T04:44:40;6.13;;;1.95;;
49578;SDS011;35483;50.828;3.228;2023-10-19T04:47:06;4.80;;;1.50;;
49578;SDS011;35483;50.828;3.228;2023-10-19T04:49:32;9.13;;;1.70;;
49578;SDS011;35483;50.828;3.228;2023-10-19T04:51:59;5.20;;;1.98;;
49578;SDS011;35483;50.828;3.228;2023-10-19T04:54:24;7.90;;;1.80;;
49578;SDS011;35483;50.828;3.228;2023-10-19T04:56:50;2.67;;;1.38;;
49578;SDS011;35483;50.828;3.228;2023-10-19T04:59:18;6.45;;;2.00;;
49578;SDS011;35483;50.828;3.228;2023-10-19T05:01:44;5.50;;;1.67;;
49578;SDS011;35483;50.828;3.228;2023-10-19T05:04:10;3.80;;;2.05;;
49578;SDS011;35483;50.828;3.228;2023-10-19T05:06:38;4.10;;;1.75;;
49578;SDS011;35483;50.828;3.228;2023-10-19T05:09:03;5.32;;;2.20;;
49578;SDS011;35483;50.828;3.228;2023-10-19T05:11:31;4.97;;;1.70;;
49578;SDS011;35483;50.828;3.228;2023-10-19T05:13:56;4.32;;;1.80;;
49578;SDS011;35483;50.828;3.228;2023-10-19T05:16:22;6.82;;;1.67;;
49578;SDS011;35483;50.828;3.228;2023-10-19T05:18:48;4.95;;;1.88;;
49578;SDS011;35483;50.828;3.228;2023-10-19T05:21:13;3.78;;;2.00;;
49578;SDS011;35483;50.828;3.228;2023-10-19T05:23:40;12.32;;;2.55;;
49578;SDS011;35483;50.828;3.228;2023-10-19T05:26:06;8.68;;;2.10;;
49578;SDS011;35483;50.828;3.228;2023-10-19T05:28:32;7.47;;;2.40;;
49578;SDS011;35483;50.828;3.228;2023-10-19T05:30:58;7.82;;;2.13;;
49578;SDS011;35483;50.828;3.228;2023-10-19T05:33:24;7.55;;;2.40;;
49578;SDS011;35483;50.828;3.228;2023-10-19T05:35:52;4.80;;;1.77;;
49578;SDS011;35483;50.828;3.228;2023-10-19T05:38:18;5.40;;;1.83;;
49578;SDS011;35483;50.828;3.228;2023-10-19T05:40:47;6.05;;;1.98;;
49578;SDS011;35483;50.828;3.228;2023-10-19T05:43:15;5.25;;;1.85;;
49578;SDS011;35483;50.828;3.228;2023-10-19T05:45:41;6.07;;;2.25;;
49578;SDS011;35483;50.828;3.228;2023-10-19T05:48:07;3.38;;;2.00;;
49578;SDS011;35483;50.828;3.228;2023-10-19T05:50:33;6.45;;;2.22;;
49578;SDS011;35483;50.828;3.228;2023-10-19T05:52:59;8.15;;;2.28;;
49578;SDS011;35483;50.828;3.228;2023-10-19T05:55:25;8.38;;;2.00;;
49578;SDS011;35483;50.828;3.228;2023-10-19T05:57:51;5.85;;;2.55;;
49578;SDS011;35483;50.828;3.228;2023-10-19T06:00:17;6.15;;;2.30;;
49578;SDS011;35483;50.828;3.228;2023-10-19T06:02:46;6.03;;;2.70;;
49578;SDS011;35483;50.828;3.228;2023-10-19T06:05:17;8.25;;;2.80;;
49578;SDS011;35483;50.828;3.228;2023-10-19T06:07:47;6.38;;;2.42;;
49578;SDS011;35483;50.828;3.228;2023-10-19T06:10:15;7.05;;;2.60;;
49578;SDS011;35483;50.828;3.228;2023-10-19T06:12:43;6.40;;;2.38;;
49578;SDS011;35483;50.828;3.228;2023-10-19T06:15:10;5.82;;;2.45;;
49578;SDS011;35483;50.828;3.228;2023-10-19T06:17:37;5.97;;;2.40;;
49578;SDS011;35483;50.828;3.228;2023-10-19T06:20:05;9.15;;;3.00;;
49578;SDS011;35483;50.828;3.228;2023-10-19T06:22:33;10.32;;;2.80;;
49578;SDS011;35483;50.828;3.228;2023-10-19T06:25:02;11.30;;;3.03;;
49578;SDS011;35483;50.828;3.228;2023-10-19T06:27:32;6.10;;;2.40;;
49578;SDS011;35483;50.828;3.228;2023-10-19T06:29:57;7.22;;;2.78;;
49578;SDS011;35483;50.828;3.228;2023-10-19T06:32:23;8.60;;;2.35;;
49578;SDS011;35483;50.828;3.228;2023-10-19T06:34:49;8.45;;;2.85;;
49578;SDS011;35483;50.828;3.228;2023-10-19T06:37:15;6.18;;;2.55;;
49578;SDS011;35483;50.828;3.228;2023-10-19T06:39:41;9.02;;;3.08;;
49578;SDS011;35483;50.828;3.228;2023-10-19T06:42:07;6.07;;;2.38;;
49578;SDS011;35483;50.828;3.228;2023-10-19T06:44:40;9.50;;;2.75;;
49578;SDS011;35483;50.828;3.228;2023-10-19T06:47:08;7.65;;;2.65;;
49578;SDS011;35483;50.828;3.228;2023-10-19T06:49:36;7.38;;;2.72;;
49578;SDS011;35483;50.828;3.228;2023-10-19T06:52:03;11.77;;;3.00;;
49578;SDS011;35483;50.828;3.228;2023-10-19T06:54:31;7.70;;;2.42;;
49578;SDS011;35483;50.828;3.228;2023-10-19T06:56:57;7.53;;;2.63;;
49578;SDS011;35483;50.828;3.228;2023-10-19T06:59:23;7.57;;;2.55;;
49578;SDS011;35483;50.828;3.228;2023-10-19T07:01:49;6.72;;;3.08;;
49578;SDS011;35483;50.828;3.228;2023-10-19T07:04:15;13.23;;;3.58;;
49578;SDS011;35483;50.828;3.228;2023-10-19T07:06:41;12.30;;;3.13;;
49578;SDS011;35483;50.828;3.228;2023-10-19T07:09:07;5.38;;;2.60;;
49578;SDS011;35483;50.828;3.228;2023-10-19T07:11:35;10.32;;;3.10;;
49578;SDS011;35483;50.828;3.228;2023-10-19T07:14:01;7.72;;;2.72;;
49578;SDS011;35483;50.828;3.228;2023-10-19T07:16:27;9.07;;;3.30;;
49578;SDS011;35483;50.828;3.228;2023-10-19T07:18:53;6.72;;;3.22;;
49578;SDS011;35483;50.828;3.228;2023-10-19T07:21:19;6.72;;;2.78;;
49578;SDS011;35483;50.828;3.228;2023-10-19T07:23:45;9.00;;;2.95;;
49578;SDS011;35483;50.828;3.228;2023-10-19T07:26:14;6.75;;;2.63;;
49578;SDS011;35483;50.828;3.228;2023-10-19T07:28:40;7.47;;;3.10;;
49578;SDS011;35483;50.828;3.228;2023-10-19T07:31:08;9.05;;;2.72;;
49578;SDS011;35483;50.828;3.228;2023-10-19T07:33:38;10.43;;;3.33;;
49578;SDS011;35483;50.828;3.228;2023-10-19T07:36:12;7.25;;;3.47;;
49578;SDS011;35483;50.828;3.228;2023-10-19T07:38:43;9.15;;;2.72;;
49578;SDS011;35483;50.828;3.228;2023-10-19T07:41:11;9.80;;;2.80;;
49578;SDS011;35483;50.828;3.228;2023-10-19T07:43:37;8.57;;;2.90;;
49578;SDS011;35483;50.828;3.228;2023-10-19T07:46:03;7.85;;;2.83;;
49578;SDS011;35483;50.828;3.228;2023-10-19T07:48:28;10.38;;;2.55;;
49578;SDS011;35483;50.828;3.228;2023-10-19T07:50:54;7.85;;;2.65;;
49578;SDS011;35483;50.828;3.228;2023-10-19T07:53:20;9.35;;;2.90;;
49578;SDS011;35483;50.828;3.228;2023-10-19T07:55:46;5.88;;;2.35;;
49578;SDS011;35483;50.828;3.228;2023-10-19T07:58:12;14.93;;;3.55;;
49578;SDS011;35483;50.828;3.228;2023-10-19T08:00:38;10.27;;;3.05;;
49578;SDS011;35483;50.828;3.228;2023-10-19T08:03:06;6.57;;;2.63;;
49578;SDS011;35483;50.828;3.228;2023-10-19T08:05:34;9.18;;;2.85;;
49578;SDS011;35483;50.828;3.228;2023-10-19T08:08:01;8.75;;;3.67;;
49578;SDS011;35483;50.828;3.228;2023-10-19T08:10:28;11.38;;;2.92;;
49578;SDS011;35483;50.828;3.228;2023-10-19T08:12:54;9.23;;;2.88;;
49578;SDS011;35483;50.828;3.228;2023-10-19T08:15:20;4.40;;;2.50;;
49578;SDS011;35483;50.828;3.228;2023-10-19T08:17:50;6.15;;;2.53;;
49578;SDS011;35483;50.828;3.228;2023-10-19T08:20:18;9.15;;;2.65;;
49578;SDS011;35483;50.828;3.228;2023-10-19T08:22:55;7.78;;;2.65;;
49578;SDS011;35483;50.828;3.228;2023-10-19T08:25:22;9.40;;;2.90;;
49578;SDS011;35483;50.828;3.228;2023-10-19T08:27:52;10.45;;;2.63;;
49578;SDS011;35483;50.828;3.228;2023-10-19T08:30:21;6.43;;;2.30;;
49578;SDS011;35483;50.828;3.228;2023-10-19T08:32:48;8.48;;;2.20;;
49578;SDS011;35483;50.828;3.228;2023-10-19T08:35:18;7.10;;;2.42;;
49578;SDS011;35483;50.828;3.228;2023-10-19T08:37:55;6.20;;;2.42;;
49578;SDS011;35483;50.828;3.228;2023-10-19T08:40:22;8.23;;;2.33;;
49578;SDS011;35483;50.828;3.228;2023-10-19T08:42:51;8.15;;;2.63;;
49578;SDS011;35483;50.828;3.228;2023-10-19T08:45:18;6.97;;;2.28;;
49578;SDS011;35483;50.828;3.228;2023-10-19T08:50:24;10.57;;;2.25;;
49578;SDS011;35483;50.828;3.228;2023-10-19T08:52:55;9.27;;;2.38;;
49578;SDS011;35483;50.828;3.228;2023-10-19T08:55:22;8.80;;;2.80;;
49578;SDS011;35483;50.828;3.228;2023-10-19T08:57:49;6.57;;;2.05;;
49578;SDS011;35483;50.828;3.228;2023-10-19T09:00:15;8.63;;;2.08;;
49578;SDS011;35483;50.828;3.228;2023-10-19T09:02:44;8.30;;;2.30;;
49578;SDS011;35483;50.828;3.228;2023-10-19T09:05:13;6.63;;;2.08;;
49578;SDS011;35483;50.828;3.228;2023-10-19T09:07:50;7.72;;;2.42;;
49578;SDS011;35483;50.828;3.228;2023-10-19T09:10:23;8.20;;;1.92;;
49578;SDS011;35483;50.828;3.228;2023-10-19T09:13:04;7.03;;;2.30;;
49578;SDS011;35483;50.828;3.228;2023-10-19T09:15:34;9.65;;;2.25;;
49578;SDS011;35483;50.828;3.228;2023-10-19T09:20:43;8.02;;;2.70;;
49578;SDS011;35483;50.828;3.228;2023-10-19T09:23:21;6.68;;;2.28;;
49578;SDS011;35483;50.828;3.228;2023-10-19T09:25:51;7.03;;;2.10;;
49578;SDS011;35483;50.828;3.228;2023-10-19T09:28:21;8.10;;;2.00;;
49578;SDS011;35483;50.828;3.228;2023-10-19T09:30:49;8.90;;;2.50;;
49578;SDS011;35483;50.828;3.228;2023-10-19T09:33:15;6.95;;;2.15;;
49578;SDS011;35483;50.828;3.228;2023-10-19T09:35:46;9.10;;;2.40;;
49578;SDS011;35483;50.828;3.228;2023-10-19T09:38:21;7.88;;;2.63;;
49578;SDS011;35483;50.828;3.228;2023-10-19T09:40:48;7.45;;;2.28;;
49578;SDS011;35483;50.828;3.228;2023-10-19T09:43:15;7.68;;;1.80;;
49578;SDS011;35483;50.828;3.228;2023-10-19T09:45:46;7.00;;;2.72;;
49578;SDS011;35483;50.828;3.228;2023-10-19T09:48:20;7.68;;;2.95;;
49578;SDS011;35483;50.828;3.228;2023-10-19T09:50:49;6.57;;;2.30;;
49578;SDS011;35483;50.828;3.228;2023-10-19T09:53:20;7.70;;;2.15;;
49578;SDS011;35483;50.828;3.228;2023-10-19T09:55:50;5.80;;;2.67;;
49578;SDS011;35483;50.828;3.228;2023-10-19T09:58:19;5.05;;;2.13;;
49578;SDS011;35483;50.828;3.228;2023-10-19T10:00:49;6.43;;;2.70;;
49578;SDS011;35483;50.828;3.228;2023-10-19T10:06:27;7.93;;;2.20;;
49578;SDS011;35483;50.828;3.228;2023-10-19T10:08:53;7.18;;;1.90;;
49578;SDS011;35483;50.828;3.228;2023-10-19T10:11:21;4.25;;;1.88;;
49578;SDS011;35483;50.828;3.228;2023-10-19T10:13:56;6.13;;;2.13;;
49578;SDS011;35483;50.828;3.228;2023-10-19T10:16:26;5.75;;;2.10;;
49578;SDS011;35483;50.828;3.228;2023-10-19T10:18:58;5.45;;;1.90;;
49578;SDS011;35483;50.828;3.228;2023-10-19T10:21:29;8.05;;;2.20;;
49578;SDS011;35483;50.828;3.228;2023-10-19T10:23:56;7.30;;;2.05;;
49578;SDS011;35483;50.828;3.228;2023-10-19T10:26:28;4.75;;;2.72;;
49578;SDS011;35483;50.828;3.228;2023-10-19T10:29:10;6.65;;;2.20;;
49578;SDS011;35483;50.828;3.228;2023-10-19T10:31:43;5.40;;;1.90;;
49578;SDS011;35483;50.828;3.228;2023-10-19T10:34:10;10.15;;;2.60;;
49578;SDS011;35483;50.828;3.228;2023-10-19T10:39:42;2.30;;;2.05;;
49578;SDS011;35483;50.828;3.228;2023-10-19T10:42:10;7.15;;;2.13;;
49578;SDS011;35483;50.828;3.228;2023-10-19T10:44:43;8.52;;;2.35;;
49578;SDS011;35483;50.828;3.228;2023-10-19T10:47:18;6.70;;;2.15;;
49578;SDS011;35483;50.828;3.228;2023-10-19T10:49:55;4.22;;;1.40;;
49578;SDS011;35483;50.828;3.228;2023-10-19T10:52:35;5.95;;;2.22;;
49578;SDS011;35483;50.828;3.228;2023-10-19T10:57:36;5.22;;;1.80;;
49578;SDS011;35483;50.828;3.228;2023-10-19T11:00:07;4.22;;;1.98;;
49578;SDS011;35483;50.828;3.228;2023-10-19T11:02:40;6.20;;;1.80;;
49578;SDS011;35483;50.828;3.228;2023-10-19T11:05:15;3.80;;;1.58;;
49578;SDS011;35483;50.828;3.228;2023-10-19T11:10:33;4.38;;;1.58;;
49578;SDS011;35483;50.828;3.228;2023-10-19T11:13:00;4.72;;;1.77;;
49578;SDS011;35483;50.828;3.228;2023-10-19T11:15:26;6.65;;;2.00;;
49578;SDS011;35483;50.828;3.228;2023-10-19T11:17:52;2.72;;;1.52;;
49578;SDS011;35483;50.828;3.228;2023-10-19T11:20:22;2.70;;;1.38;;
49578;SDS011;35483;50.828;3.228;2023-10-19T11:22:50;5.45;;;1.92;;
49578;SDS011;35483;50.828;3.228;2023-10-19T11:25:19;2.72;;;2.00;;
49578;SDS011;35483;50.828;3.228;2023-10-19T11:27:47;5.22;;;2.25;;
49578;SDS011;35483;50.828;3.228;2023-10-19T11:30:13;3.50;;;1.50;;
49578;SDS011;35483;50.828;3.228;2023-10-19T11:32:47;3.20;;;1.48;;
49578;SDS011;35483;50.828;3.228;2023-10-19T11:35:13;7.53;;;1.55;;
49578;SDS011;35483;50.828;3.228;2023-10-19T11:37:45;3.50;;;1.70;;
49578;SDS011;35483;50.828;3.228;2023-10-19T11:40:12;3.20;;;1.55;;
49578;SDS011;35483;50.828;3.228;2023-10-19T11:42:38;2.95;;;1.73;;
49578;SDS011;35483;50.828;3.228;2023-10-19T11:45:05;3.00;;;1.45;;
49578;SDS011;35483;50.828;3.228;2023-10-19T11:47:31;2.92;;;1.45;;
49578;SDS011;35483;50.828;3.228;2023-10-19T11:49:57;3.63;;;1.20;;
49578;SDS011;35483;50.828;3.228;2023-10-19T11:52:23;4.85;;;1.63;;
49578;SDS011;35483;50.828;3.228;2023-10-19T11:54:48;3.20;;;1.50;;
49578;SDS011;35483;50.828;3.228;2023-10-19T11:57:14;5.63;;;1.70;;
49578;SDS011;35483;50.828;3.228;2023-10-19T11:59:40;2.17;;;1.60;;
49578;SDS011;35483;50.828;3.228;2023-10-19T12:02:06;2.15;;;1.33;;
49578;SDS011;35483;50.828;3.228;2023-10-19T12:04:32;2.25;;;1.40;;
49578;SDS011;35483;50.828;3.228;2023-10-19T12:07:01;5.75;;;1.88;;
49578;SDS011;35483;50.828;3.228;2023-10-19T12:09:28;5.85;;;1.95;;
49578;SDS011;35483;50.828;3.228;2023-10-19T12:11:55;4.03;;;1.63;;
49578;SDS011;35483;50.828;3.228;2023-10-19T12:14:21;4.38;;;1.70;;
49578;SDS011;35483;50.828;3.228;2023-10-19T12:16:48;3.03;;;1.58;;
49578;SDS011;35483;50.828;3.228;2023-10-19T12:19:13;7.38;;;1.90;;
49578;SDS011;35483;50.828;3.228;2023-10-19T12:21:40;3.35;;;1.50;;
49578;SDS011;35483;50.828;3.228;2023-10-19T12:24:09;2.72;;;1.42;;
49578;SDS011;35483;50.828;3.228;2023-10-19T12:26:35;2.90;;;1.48;;
49578;SDS011;35483;50.828;3.228;2023-10-19T12:29:01;3.10;;;1.80;;
49578;SDS011;35483;50.828;3.228;2023-10-19T12:31:30;4.38;;;1.63;;
49578;SDS011;35483;50.828;3.228;2023-10-19T12:33:56;1.83;;;1.27;;
49578;SDS011;35483;50.828;3.228;2023-10-19T12:36:21;2.03;;;1.17;;
49578;SDS011;35483;50.828;3.228;2023-10-19T12:38:53;1.73;;;1.38;;
49578;SDS011;35483;50.828;3.228;2023-10-19T12:41:22;3.60;;;1.70;;
49578;SDS011;35483;50.828;3.228;2023-10-19T12:43:49;3.58;;;1.58;;
49578;SDS011;35483;50.828;3.228;2023-10-19T12:46:26;2.78;;;1.50;;
49578;SDS011;35483;50.828;3.228;2023-10-19T12:48:55;2.08;;;1.15;;
49578;SDS011;35483;50.828;3.228;2023-10-19T12:51:21;4.20;;;1.60;;
49578;SDS011;35483;50.828;3.228;2023-10-19T12:53:54;4.57;;;1.55;;
49578;SDS011;35483;50.828;3.228;2023-10-19T12:56:20;3.63;;;1.73;;
49578;SDS011;35483;50.828;3.228;2023-10-19T12:58:49;4.90;;;1.90;;
49578;SDS011;35483;50.828;3.228;2023-10-19T13:01:15;5.07;;;1.58;;
49578;SDS011;35483;50.828;3.228;2023-10-19T13:03:48;2.75;;;1.35;;
49578;SDS011;35483;50.828;3.228;2023-10-19T13:06:16;3.60;;;1.60;;
49578;SDS011;35483;50.828;3.228;2023-10-19T13:08:42;3.78;;;1.60;;
49578;SDS011;35483;50.828;3.228;2023-10-19T13:11:08;5.35;;;1.73;;
49578;SDS011;35483;50.828;3.228;2023-10-19T13:13:40;5.40;;;1.63;;
49578;SDS011;35483;50.828;3.228;2023-10-19T13:16:06;2.67;;;1.45;;
49578;SDS011;35483;50.828;3.228;2023-10-19T13:18:34;4.57;;;1.50;;
49578;SDS011;35483;50.828;3.228;2023-10-19T13:21:01;2.92;;;1.55;;
49578;SDS011;35483;50.828;3.228;2023-10-19T13:23:33;1.85;;;1.63;;
49578;SDS011;35483;50.828;3.228;2023-10-19T13:25:58;2.08;;;1.50;;
49578;SDS011;35483;50.828;3.228;2023-10-19T13:28:40;5.90;;;1.88;;
49578;SDS011;35483;50.828;3.228;2023-10-19T13:31:05;3.28;;;1.60;;
49578;SDS011;35483;50.828;3.228;2023-10-19T13:33:34;3.75;;;1.80;;
49578;SDS011;35483;50.828;3.228;2023-10-19T13:36:00;3.08;;;1.52;;
49578;SDS011;35483;50.828;3.228;2023-10-19T13:38:27;1.90;;;1.50;;
49578;SDS011;35483;50.828;3.228;2023-10-19T13:40:53;3.92;;;1.88;;
49578;SDS011;35483;50.828;3.228;2023-10-19T13:43:19;3.25;;;1.83;;
49578;SDS011;35483;50.828;3.228;2023-10-19T13:45:45;5.35;;;1.50;;
49578;SDS011;35483;50.828;3.228;2023-10-19T13:48:12;2.90;;;1.73;;
49578;SDS011;35483;50.828;3.228;2023-10-19T13:50:42;5.93;;;1.70;;
49578;SDS011;35483;50.828;3.228;2023-10-19T13:53:13;4.75;;;1.52;;
49578;SDS011;35483;50.828;3.228;2023-10-19T13:55:42;3.25;;;1.75;;
49578;SDS011;35483;50.828;3.228;2023-10-19T13:58:08;3.03;;;1.38;;
49578;SDS011;35483;50.828;3.228;2023-10-19T14:00:34;3.55;;;1.60;;
49578;SDS011;35483;50.828;3.228;2023-10-19T14:03:00;5.05;;;1.40;;
49578;SDS011;35483;50.828;3.228;2023-10-19T14:05:27;5.03;;;1.65;;
49578;SDS011;35483;50.828;3.228;2023-10-19T14:07:54;4.00;;;1.60;;
49578;SDS011;35483;50.828;3.228;2023-10-19T14:10:20;3.20;;;2.05;;
49578;SDS011;35483;50.828;3.228;2023-10-19T14:12:48;3.95;;;1.60;;
49578;SDS011;35483;50.828;3.228;2023-10-19T14:15:17;3.58;;;1.60;;
49578;SDS011;35483;50.828;3.228;2023-10-19T14:17:44;3.20;;;1.77;;
49578;SDS011;35483;50.828;3.228;2023-10-19T14:20:11;4.22;;;1.80;;
49578;SDS011;35483;50.828;3.228;2023-10-19T14:22:44;4.35;;;1.88;;
49578;SDS011;35483;50.828;3.228;2023-10-19T14:25:13;3.55;;;1.40;;
49578;SDS011;35483;50.828;3.228;2023-10-19T14:27:40;2.95;;;1.30;;
49578;SDS011;35483;50.828;3.228;2023-10-19T14:30:07;2.88;;;1.30;;
49578;SDS011;35483;50.828;3.228;2023-10-19T14:32:39;2.03;;;1.23;;
49578;SDS011;35483;50.828;3.228;2023-10-19T14:35:07;2.65;;;1.20;;
49578;SDS011;35483;50.828;3.228;2023-10-19T14:37:36;1.73;;;1.08;;
49578;SDS011;35483;50.828;3.228;2023-10-19T14:40:16;2.30;;;1.52;;
49578;SDS011;35483;50.828;3.228;2023-10-19T14:42:45;5.75;;;2.10;;
49578;SDS011;35483;50.828;3.228;2023-10-19T14:45:12;2.05;;;1.30;;
49578;SDS011;35483;50.828;3.228;2023-10-19T14:47:41;6.68;;;1.70;;
49578;SDS011;35483;50.828;3.228;2023-10-19T14:50:18;2.75;;;1.30;;
49578;SDS011;35483;50.828;3.228;2023-10-19T14:52:47;3.30;;;1.38;;
49578;SDS011;35483;50.828;3.228;2023-10-19T14:55:15;3.97;;;1.90;;
49578;SDS011;35483;50.828;3.228;2023-10-19T14:57:42;2.58;;;1.20;;
49578;SDS011;35483;50.828;3.228;2023-10-19T15:00:23;4.78;;;2.35;;
49578;SDS011;35483;50.828;3.228;2023-10-19T15:03:00;1.90;;;1.50;;
49578;SDS011;35483;50.828;3.228;2023-10-19T15:05:31;3.08;;;1.50;;
49578;SDS011;35483;50.828;3.228;2023-10-19T15:08:00;3.85;;;2.08;;
49578;SDS011;35483;50.828;3.228;2023-10-19T15:10:27;3.80;;;1.60;;
49578;SDS011;35483;50.828;3.228;2023-10-19T15:12:54;1.83;;;1.33;;
49578;SDS011;35483;50.828;3.228;2023-10-19T15:15:25;2.67;;;1.58;;